createdAt,value
2019-05-22T00:01:13.941Z,76.33
2019-05-22T00:03:47.369Z,79.55
2019-05-22T00:06:17.369Z,83.94
2019-05-22T00:08:47.683Z,81.08
2019-05-22T00:11:17.335Z,80.66
2019-05-22T00:13:47.848Z,75.58
2019-05-22T00:16:18.492Z,77.42
2019-05-22T00:18:47.454Z,81.75
2019-05-22T00:21:16.712Z,81.75
2019-05-22T00:23:46.777Z,82.06
2019-05-22T00:26:15.411Z,78.65
2019-05-22T00:28:44.379Z,79.81
2019-05-22T00:31:14.342Z,78.36
2019-05-22T00:33:44.193Z,81.04
2019-05-22T00:36:13.424Z,78.94
2019-05-22T00:38:42.338Z,82.22
2019-05-22T00:41:13.271Z,82.25
2019-05-22T00:43:44.604Z,82.20
2019-05-22T00:46:20.567Z,81.30
2019-05-22T00:48:49.589Z,78.52
2019-05-22T00:51:22.522Z,80.55
2019-05-22T00:54:09.383Z,81.11
2019-05-22T00:56:57.311Z,79.98
2019-05-22T00:59:31.535Z,84.50
2019-05-22T01:02:04.058Z,82.41
2019-05-22T01:04:35.148Z,86.81
2019-05-22T01:07:07.574Z,82.78
2019-05-22T01:09:43.489Z,82.12
2019-05-22T01:12:18.828Z,78.37
2019-05-22T01:14:48.884Z,77.31
2019-05-22T01:17:19.411Z,77.78
2019-05-22T01:19:49.051Z,75.74
2019-05-22T01:22:17.828Z,79.31
2019-05-22T01:24:48.297Z,76.05
2019-05-22T01:27:18.276Z,75.33
2019-05-22T01:29:48.095Z,80.97
2019-05-22T01:32:20.733Z,78.16
2019-05-22T01:34:50.448Z,80.03
2019-05-22T01:37:20.131Z,80.52
2019-05-22T01:39:56.133Z,78.99
2019-05-22T01:42:29.329Z,78.06
2019-05-22T01:45:05.807Z,77.55
2019-05-22T01:47:42.698Z,79.75
2019-05-22T01:50:16.041Z,75.57
2019-05-22T01:52:46.293Z,78.77
2019-05-22T01:55:15.256Z,78.92
2019-05-22T01:57:44.240Z,77.91
2019-05-22T02:00:13.375Z,78.92
2019-05-22T02:02:42.867Z,78.00
2019-05-22T02:05:12.102Z,75.10
2019-05-22T02:07:42.092Z,78.60
2019-05-22T02:10:14.732Z,78.60
2019-05-22T02:12:52.215Z,80.22
2019-05-22T02:15:21.347Z,78.90
2019-05-22T02:17:50.397Z,80.95
2019-05-22T02:20:19.951Z,80.30
2019-05-22T02:22:49.955Z,80.51
2019-05-22T02:25:19.077Z,78.61
2019-05-22T02:27:48.115Z,81.09
2019-05-22T02:30:18.971Z,80.76
2019-05-22T02:32:48.604Z,82.14
2019-05-22T02:35:16.998Z,81.05
2019-05-22T02:37:45.737Z,79.28
2019-05-22T02:40:23.775Z,77.29
2019-05-22T02:42:53.472Z,80.12
2019-05-22T02:45:22.526Z,76.65
2019-05-22T02:47:50.890Z,81.93
2019-05-22T02:50:19.916Z,82.80
2019-05-22T02:52:49.480Z,79.12
2019-05-22T02:55:17.936Z,79.37
2019-05-22T02:57:46.839Z,82.97
2019-05-22T03:00:16.479Z,80.11
2019-05-22T03:02:51.278Z,81.78
2019-05-22T03:05:20.907Z,82.60
2019-05-22T03:07:49.227Z,82.70
2019-05-22T03:10:19.559Z,79.05
2019-05-22T03:12:49.988Z,77.52
2019-05-22T03:15:22.469Z,82.20
2019-05-22T03:17:55.809Z,81.89
2019-05-22T03:20:24.598Z,77.87
2019-05-22T03:23:09.762Z,83.98
2019-05-22T03:25:38.467Z,82.37
2019-05-22T03:28:08.334Z,78.67
2019-05-22T03:30:39.455Z,82.10
2019-05-22T03:33:09.551Z,81.22
2019-05-22T03:35:47.491Z,82.22
2019-05-22T03:38:19.209Z,82.90
2019-05-22T03:40:50.893Z,82.45
2019-05-22T03:43:22.459Z,79.46
2019-05-22T03:45:51.016Z,79.06
2019-05-22T03:48:21.433Z,82.42
2019-05-22T03:50:49.907Z,82.17
2019-05-22T03:53:19.114Z,83.48
2019-05-22T03:55:49.931Z,84.66
2019-05-22T03:58:18.948Z,82.67
2019-05-22T04:00:49.821Z,85.07
2019-05-22T04:03:18.111Z,84.36
2019-05-22T04:05:47.588Z,81.29
2019-05-22T04:08:18.638Z,78.54
2019-05-22T04:11:00.027Z,77.35
2019-05-22T04:13:28.966Z,80.04
2019-05-22T04:15:57.586Z,77.11
2019-05-22T04:18:26.985Z,80.41
2019-05-22T04:20:56.823Z,80.28
2019-05-22T04:23:25.379Z,81.39
2019-05-22T04:25:55.454Z,82.26
2019-05-22T04:28:23.870Z,85.40
2019-05-22T04:30:52.876Z,84.79
2019-05-22T04:33:21.640Z,84.10
2019-05-22T04:35:50.202Z,87.50
2019-05-22T04:38:18.681Z,83.34
2019-05-22T04:40:48.921Z,82.53
2019-05-22T04:43:20.426Z,82.44
2019-05-22T04:45:50.253Z,82.62
2019-05-22T04:48:19.811Z,84.17
2019-05-22T04:50:50.046Z,85.50
2019-05-22T04:53:18.796Z,81.37
2019-05-22T04:55:47.893Z,85.12
2019-05-22T04:58:17.930Z,81.69
2019-05-22T05:00:46.398Z,86.69
2019-05-22T05:03:16.650Z,89.03
2019-05-22T05:05:54.143Z,83.51
2019-05-22T05:08:24.108Z,88.62
2019-05-22T05:10:56.171Z,87.12
2019-05-22T05:13:24.957Z,82.22
2019-05-22T05:15:53.260Z,83.89
2019-05-22T05:18:21.997Z,81.83
2019-05-22T05:20:50.354Z,87.78
2019-05-22T05:23:19.348Z,83.95
2019-05-22T05:25:47.732Z,85.53
2019-05-22T05:28:16.513Z,83.52
2019-05-22T05:30:44.896Z,87.09
2019-05-22T05:33:13.282Z,86.89
2019-05-22T05:35:42.330Z,87.80
2019-05-22T05:38:10.918Z,89.79
2019-05-22T05:40:41.825Z,87.08
2019-05-22T05:43:11.828Z,91.12
2019-05-22T05:45:42.373Z,87.01
2019-05-22T05:48:14.100Z,86.68
2019-05-22T05:51:02.033Z,86.68
2019-05-22T05:53:31.922Z,89.58
2019-05-22T05:56:16.777Z,87.79
2019-05-22T05:58:46.086Z,87.79
2019-05-22T06:01:19.192Z,89.30
2019-05-22T06:03:47.503Z,79.68
2019-05-22T06:06:26.023Z,87.69
2019-05-22T06:08:56.388Z,87.55
2019-05-22T06:11:39.958Z,87.27
2019-05-22T06:14:10.195Z,88.86
2019-05-22T06:17:01.357Z,87.70
2019-05-22T06:19:31.592Z,87.51
2019-05-22T06:22:00.321Z,92.73
2019-05-22T06:24:36.631Z,88.52
2019-05-22T06:27:11.819Z,87.25
2019-05-22T06:29:56.050Z,86.49
2019-05-22T06:32:57.681Z,87.54
2019-05-22T06:35:30.024Z,87.15
2019-05-22T06:38:18.655Z,87.15
2019-05-22T06:40:47.061Z,89.55
2019-05-22T06:43:29.240Z,86.54
2019-05-22T06:45:58.035Z,86.50
2019-05-22T06:48:26.359Z,87.09
2019-05-22T06:50:54.719Z,88.00
2019-05-22T06:53:23.116Z,88.77
2019-05-22T06:55:51.486Z,89.30
2019-05-22T06:58:20.737Z,90.84
2019-05-22T07:00:49.105Z,85.72
2019-05-22T07:03:17.862Z,87.04
2019-05-22T07:05:46.516Z,86.33
2019-05-22T07:08:14.907Z,90.04
2019-05-22T07:10:43.376Z,82.78
2019-05-22T07:13:13.580Z,85.63
2019-05-22T07:15:43.501Z,85.64
2019-05-22T07:18:14.655Z,86.63
2019-05-22T07:20:43.596Z,85.83
2019-05-22T07:23:13.182Z,83.30
2019-05-22T07:25:44.591Z,88.12
2019-05-22T07:28:14.295Z,87.04
2019-05-22T07:30:42.809Z,86.45
2019-05-22T07:33:12.284Z,86.23
2019-05-22T07:36:04.763Z,81.60
2019-05-22T07:38:12.616Z,85.68
2019-05-22T07:40:41.383Z,82.14
2019-05-22T07:43:10.048Z,82.70
2019-05-22T07:45:39.432Z,86.30
2019-05-22T07:48:09.708Z,86.47
2019-05-22T07:50:42.438Z,82.94
2019-05-22T07:53:12.058Z,98.77
2019-05-22T07:55:40.430Z,87.63
2019-05-22T07:58:14.543Z,90.98
2019-05-22T08:00:46.898Z,86.36
2019-05-22T08:03:15.203Z,82.65
2019-05-22T08:05:46.672Z,84.03
2019-05-22T08:08:18.699Z,85.95
2019-05-22T08:10:48.072Z,82.67
2019-05-22T08:13:16.501Z,80.29
2019-05-22T08:15:47.870Z,86.21
2019-05-22T08:18:16.601Z,84.58
2019-05-22T08:20:45.683Z,81.79
2019-05-22T08:23:14.247Z,82.55
2019-05-22T08:25:42.708Z,84.10
2019-05-22T08:28:12.339Z,86.85
2019-05-22T08:30:41.709Z,83.09
2019-05-22T08:33:11.461Z,81.70
2019-05-22T08:35:39.770Z,83.13
2019-05-22T08:38:09.916Z,85.99
2019-05-22T08:40:39.442Z,82.29
2019-05-22T08:43:08.690Z,82.85
2019-05-22T08:45:38.316Z,84.76
2019-05-22T08:48:07.646Z,83.58
2019-05-22T08:50:37.577Z,79.46
2019-05-22T08:53:07.115Z,88.20
2019-05-22T08:55:36.318Z,94.43
2019-05-22T08:58:05.867Z,94.94
2019-05-22T09:00:35.376Z,89.93
2019-05-22T09:03:04.389Z,97.33
2019-05-22T09:05:33.632Z,91.73
2019-05-22T09:08:02.588Z,90.90
2019-05-22T09:10:31.849Z,91.73
2019-05-22T09:13:00.171Z,90.91
2019-05-22T09:15:29.042Z,88.84
2019-05-22T09:17:57.383Z,87.63
2019-05-22T09:20:25.821Z,86.56
2019-05-22T09:22:54.763Z,82.75
2019-05-22T09:25:24.184Z,78.04
2019-05-22T09:27:52.483Z,74.49
2019-05-22T09:30:20.934Z,75.04
2019-05-22T09:32:49.231Z,75.27
2019-05-22T09:35:17.896Z,77.96
2019-05-22T09:37:46.201Z,77.54
2019-05-22T09:40:14.848Z,76.67
2019-05-22T09:42:43.730Z,77.77
2019-05-22T09:45:12.362Z,77.66
2019-05-22T09:47:42.390Z,73.33
2019-05-22T09:50:12.494Z,75.59
2019-05-22T09:52:56.413Z,76.98
2019-05-22T09:55:13.966Z,72.55
2019-05-22T09:57:42.556Z,72.55
2019-05-22T10:00:12.483Z,73.46
2019-05-22T10:02:42.841Z,71.16
2019-05-22T10:05:13.302Z,74.43
2019-05-22T10:07:57.804Z,72.17
2019-05-22T10:10:14.769Z,73.05
2019-05-22T10:12:43.954Z,73.64
2019-05-22T10:15:13.163Z,73.73
2019-05-22T10:17:47.743Z,70.40
2019-05-22T10:20:17.094Z,68.43
2019-05-22T10:22:46.346Z,74.96
2019-05-22T10:25:17.101Z,74.15
2019-05-22T10:27:47.130Z,74.64
2019-05-22T10:30:19.536Z,73.38
2019-05-22T10:32:48.773Z,76.07
2019-05-22T10:35:17.567Z,77.81
2019-05-22T10:37:45.998Z,74.96
2019-05-22T10:40:15.658Z,75.75
2019-05-22T10:42:45.195Z,76.98
2019-05-22T10:45:14.134Z,75.43
2019-05-22T10:47:44.365Z,78.50
2019-05-22T10:50:13.896Z,76.56
2019-05-22T10:52:42.282Z,74.43
2019-05-22T10:55:10.658Z,74.85
2019-05-22T10:57:41.010Z,71.26
2019-05-22T11:00:12.992Z,74.01
2019-05-22T11:02:41.841Z,72.48
2019-05-22T11:05:10.470Z,73.39
2019-05-22T11:07:39.025Z,72.96
2019-05-22T11:10:08.640Z,77.54
2019-05-22T11:12:36.941Z,72.72
2019-05-22T11:15:07.365Z,73.09
2019-05-22T11:17:36.517Z,71.73
2019-05-22T11:20:06.449Z,72.59
2019-05-22T11:22:36.583Z,72.56
2019-05-22T11:25:10.081Z,76.25
2019-05-22T11:27:39.305Z,74.09
2019-05-22T11:30:09.856Z,75.52
2019-05-22T11:32:38.226Z,72.39
2019-05-22T11:35:08.745Z,71.65
2019-05-22T11:37:37.621Z,73.41
2019-05-22T11:40:07.470Z,70.59
2019-05-22T11:42:36.047Z,76.42
2019-05-22T11:45:11.247Z,73.45
2019-05-22T11:47:39.623Z,77.54
2019-05-22T11:50:10.355Z,77.31
2019-05-22T11:52:38.750Z,76.87
2019-05-22T11:55:08.399Z,72.48
2019-05-22T11:57:38.060Z,76.10
2019-05-22T12:00:09.287Z,72.76
2019-05-22T12:02:38.947Z,73.73
2019-05-22T12:05:10.277Z,74.06
2019-05-22T12:07:42.151Z,72.61
2019-05-22T12:10:12.704Z,73.35
2019-05-22T12:12:41.528Z,74.86
2019-05-22T12:15:10.494Z,74.38
2019-05-22T12:17:39.259Z,69.76
2019-05-22T12:20:08.603Z,70.41
2019-05-22T12:22:37.439Z,71.30
2019-05-22T12:25:07.381Z,71.59
2019-05-22T12:27:35.769Z,69.52
2019-05-22T12:30:05.773Z,72.57
2019-05-22T12:32:34.263Z,74.86
2019-05-22T12:35:03.278Z,72.68
2019-05-22T12:37:32.181Z,76.70
2019-05-22T12:40:00.713Z,81.58
2019-05-22T12:42:29.004Z,81.82
2019-05-22T12:44:57.695Z,79.70
2019-05-22T12:47:26.856Z,78.68
2019-05-22T12:49:55.817Z,79.99
2019-05-22T12:52:24.366Z,84.44
2019-05-22T12:54:53.428Z,84.67
2019-05-22T12:57:22.561Z,84.79
2019-05-22T12:59:51.927Z,79.46
2019-05-22T13:02:20.292Z,79.72
2019-05-22T13:04:49.270Z,80.48
2019-05-22T13:07:18.324Z,80.99
2019-05-22T13:09:47.164Z,77.03
2019-05-22T13:12:15.942Z,77.49
2019-05-22T13:14:45.175Z,71.56
2019-05-22T13:17:15.734Z,75.40
2019-05-22T13:19:44.674Z,73.68
2019-05-22T13:22:16.627Z,75.64
2019-05-22T13:24:44.931Z,76.16
2019-05-22T13:27:15.710Z,77.23
2019-05-22T13:29:44.357Z,74.82
2019-05-22T13:32:14.986Z,73.89
2019-05-22T13:34:43.432Z,73.69
2019-05-22T13:37:11.784Z,74.94
2019-05-22T13:39:40.769Z,71.68
2019-05-22T13:42:09.135Z,75.23
2019-05-22T13:44:38.092Z,72.38
2019-05-22T13:47:07.463Z,78.78
2019-05-22T13:49:38.074Z,75.34
2019-05-22T13:52:06.649Z,79.08
2019-05-22T13:54:35.449Z,71.88
2019-05-22T13:57:04.285Z,71.62
2019-05-22T13:59:32.570Z,71.00
2019-05-22T14:02:00.958Z,68.40
2019-05-22T14:04:29.549Z,70.01
2019-05-22T14:06:58.297Z,68.81
2019-05-22T14:09:26.896Z,68.14
2019-05-22T14:11:56.242Z,64.26
2019-05-22T14:14:24.914Z,63.56
2019-05-22T14:16:53.962Z,65.50
2019-05-22T14:19:23.499Z,65.12
2019-05-22T14:21:52.296Z,67.89
2019-05-22T14:24:20.945Z,66.59
2019-05-22T14:26:50.894Z,67.14
2019-05-22T14:29:19.576Z,65.27
2019-05-22T14:31:48.009Z,63.94
2019-05-22T14:34:17.018Z,64.67
2019-05-22T14:36:45.621Z,64.95
2019-05-22T14:39:15.834Z,66.20
2019-05-22T14:41:44.222Z,66.50
2019-05-22T14:44:12.531Z,62.96
2019-05-22T14:46:40.912Z,61.98
2019-05-22T14:49:09.280Z,64.19
2019-05-22T14:51:37.896Z,66.24
2019-05-22T14:54:08.116Z,64.83
2019-05-22T14:56:37.487Z,63.92
2019-05-22T14:59:06.191Z,65.32
2019-05-22T15:01:34.734Z,66.31
2019-05-22T15:04:03.766Z,64.49
2019-05-22T15:06:32.512Z,65.44
2019-05-22T15:09:00.876Z,67.01
2019-05-22T15:11:29.407Z,62.35
2019-05-22T15:13:57.998Z,64.36
2019-05-22T15:16:26.431Z,66.55
2019-05-22T15:18:54.887Z,62.44
2019-05-22T15:21:24.689Z,63.19
2019-05-22T15:23:53.656Z,66.04
2019-05-22T15:26:21.959Z,63.79
2019-05-22T15:28:50.371Z,65.12
2019-05-22T15:31:18.897Z,64.87
2019-05-22T15:33:47.265Z,62.89
2019-05-22T15:36:16.929Z,63.75
2019-05-22T15:38:46.396Z,61.89
2019-05-22T15:41:15.332Z,63.74
2019-05-22T15:43:50.445Z,63.84
2019-05-22T15:46:16.824Z,64.29
2019-05-22T15:48:47.532Z,60.87
2019-05-22T15:51:18.430Z,64.38
2019-05-22T15:53:47.991Z,64.09
2019-05-22T15:56:16.390Z,62.86
2019-05-22T15:58:47.216Z,59.00
2019-05-22T16:01:17.744Z,61.34
2019-05-22T16:03:48.276Z,59.32
2019-05-22T16:06:17.196Z,60.14
2019-05-22T16:08:46.311Z,56.84
2019-05-22T16:11:15.271Z,55.14
2019-05-22T16:13:45.108Z,56.30
2019-05-22T16:16:15.030Z,58.45
2019-05-22T16:18:44.896Z,57.49
2019-05-22T16:21:13.388Z,60.20
2019-05-22T16:23:42.939Z,60.79
2019-05-22T16:26:12.807Z,60.12
2019-05-22T16:28:43.817Z,59.52
2019-05-22T16:31:13.752Z,59.09
2019-05-22T16:33:43.988Z,62.38
2019-05-22T16:36:13.622Z,60.77
2019-05-22T16:38:42.566Z,60.03
2019-05-22T16:41:11.803Z,58.41
2019-05-22T16:43:49.411Z,61.81
2019-05-22T16:46:15.190Z,60.01
2019-05-22T16:48:44.695Z,55.34
2019-05-22T16:51:15.793Z,55.94
2019-05-22T16:53:50.209Z,58.34
2019-05-22T16:56:20.614Z,56.78
2019-05-22T16:58:49.739Z,56.93
2019-05-22T17:01:18.857Z,57.26
2019-05-22T17:03:49.410Z,56.43
2019-05-22T17:06:18.254Z,54.79
2019-05-22T17:08:47.374Z,56.57
2019-05-22T17:11:15.823Z,56.66
2019-05-22T17:13:45.343Z,57.75
2019-05-22T17:16:15.503Z,57.84
2019-05-22T17:18:47.978Z,56.08
2019-05-22T17:21:15.285Z,58.42
2019-05-22T17:23:44.733Z,59.39
2019-05-22T17:26:13.527Z,60.21
2019-05-22T17:28:41.945Z,57.96
2019-05-22T17:31:11.386Z,57.40
2019-05-22T17:33:40.446Z,62.25
2019-05-22T17:36:09.229Z,57.04
2019-05-22T17:38:38.811Z,60.50
2019-05-22T17:41:08.464Z,60.61
2019-05-22T17:43:37.324Z,58.03
2019-05-22T17:46:06.398Z,60.24
2019-05-22T17:48:35.374Z,57.76
2019-05-22T17:51:05.238Z,59.34
2019-05-22T17:53:34.524Z,60.81
2019-05-22T17:56:03.939Z,61.86
2019-05-22T17:58:32.333Z,60.37
2019-05-22T18:01:02.039Z,59.29
2019-05-22T18:03:31.436Z,61.83
2019-05-22T18:06:00.779Z,63.25
2019-05-22T18:08:29.149Z,61.67
2019-05-22T18:10:58.408Z,62.66
2019-05-22T18:13:30.308Z,62.00
2019-05-22T18:15:59.106Z,60.77
2019-05-22T18:18:27.440Z,61.98
2019-05-22T18:20:56.960Z,61.82
2019-05-22T18:23:25.327Z,61.49
2019-05-22T18:25:53.998Z,59.49
2019-05-22T18:28:22.516Z,63.90
2019-05-22T18:30:50.992Z,64.88
2019-05-22T18:33:19.490Z,65.76
2019-05-22T18:35:48.129Z,67.25
2019-05-22T18:38:16.518Z,66.90
2019-05-22T18:40:45.407Z,67.60
2019-05-22T18:43:14.005Z,66.61
2019-05-22T18:45:42.726Z,67.63
2019-05-22T18:48:11.237Z,69.45
2019-05-22T18:50:39.891Z,67.94
2019-05-22T18:53:08.316Z,65.78
2019-05-22T18:55:37.184Z,66.20
2019-05-22T18:58:05.769Z,71.64
2019-05-22T19:00:34.443Z,70.01
2019-05-22T19:03:03.401Z,67.58
2019-05-22T19:05:32.830Z,68.91
2019-05-22T19:08:01.289Z,69.26
2019-05-22T19:10:30.127Z,66.38
2019-05-22T19:12:58.725Z,68.95
2019-05-22T19:15:28.367Z,71.51
2019-05-22T19:17:56.753Z,67.01
2019-05-22T19:20:25.601Z,65.46
2019-05-22T19:23:00.262Z,69.92
2019-05-22T19:25:24.503Z,71.64
2019-05-22T19:27:53.467Z,69.62
2019-05-22T19:30:22.993Z,70.95
2019-05-22T19:32:52.319Z,71.42
2019-05-22T19:35:20.702Z,70.73
2019-05-22T19:37:50.539Z,69.30
2019-05-22T19:40:19.715Z,65.90
2019-05-22T19:42:48.261Z,69.79
2019-05-22T19:45:17.057Z,73.06
2019-05-22T19:47:51.116Z,68.64
2019-05-22T19:50:23.363Z,71.64
2019-05-22T19:52:53.073Z,69.92
2019-05-22T19:55:22.709Z,70.96
2019-05-22T19:57:51.754Z,70.96
2019-05-22T20:00:22.618Z,69.66
2019-05-22T20:02:51.389Z,71.92
2019-05-22T20:05:21.787Z,70.89
2019-05-22T20:07:50.275Z,67.17
2019-05-22T20:10:18.958Z,69.11
2019-05-22T20:12:47.639Z,68.41
2019-05-22T20:15:17.179Z,67.54
2019-05-22T20:17:47.395Z,71.35
2019-05-22T20:20:17.593Z,69.37
2019-05-22T20:22:46.332Z,68.76
2019-05-22T20:25:17.128Z,68.48
2019-05-22T20:27:45.798Z,69.84
2019-05-22T20:30:15.971Z,66.52
2019-05-22T20:32:45.061Z,68.63
2019-05-22T20:35:14.613Z,73.00
2019-05-22T20:37:45.898Z,69.98
2019-05-22T20:40:14.577Z,72.91
2019-05-22T20:42:43.225Z,67.00
2019-05-22T20:45:13.129Z,68.54
2019-05-22T20:47:42.181Z,70.17
2019-05-22T20:50:11.401Z,69.69
2019-05-22T20:52:40.064Z,69.96
2019-05-22T20:55:09.561Z,67.59
2019-05-22T20:57:38.802Z,72.69
2019-05-22T21:00:10.112Z,70.53
2019-05-22T21:02:40.714Z,68.06
2019-05-22T21:05:11.020Z,69.57
2019-05-22T21:07:43.286Z,70.50
2019-05-22T21:10:12.589Z,70.13
2019-05-22T21:12:41.017Z,71.18
2019-05-22T21:15:10.550Z,71.75
2019-05-22T21:17:39.906Z,72.42
2019-05-22T21:20:11.317Z,69.73
2019-05-22T21:22:41.300Z,71.40
2019-05-22T21:25:12.146Z,69.01
2019-05-22T21:27:42.683Z,68.26
2019-05-22T21:30:12.920Z,68.90
2019-05-22T21:32:41.226Z,69.84
2019-05-22T21:35:10.297Z,73.52
2019-05-22T21:37:39.528Z,68.85
2019-05-22T21:40:09.211Z,70.85
2019-05-22T21:42:41.231Z,74.69
2019-05-22T21:45:11.112Z,71.25
2019-05-22T21:47:41.199Z,69.43
2019-05-22T21:50:10.753Z,69.51
2019-05-22T21:52:40.426Z,73.03
2019-05-22T21:55:11.447Z,72.51
2019-05-22T21:57:40.487Z,73.67
2019-05-22T22:00:13.589Z,72.17
2019-05-22T22:02:45.597Z,74.05
2019-05-22T22:05:15.468Z,70.95
2019-05-22T22:07:44.330Z,71.95
2019-05-22T22:10:13.404Z,71.52
2019-05-22T22:12:42.235Z,68.40
2019-05-22T22:15:12.438Z,73.41
2019-05-22T22:17:42.517Z,72.62
2019-05-22T22:20:12.148Z,72.49
2019-05-22T22:22:42.435Z,69.89
2019-05-22T22:25:13.098Z,74.66
2019-05-22T22:27:42.376Z,72.23
2019-05-22T22:30:17.715Z,74.70
2019-05-22T22:32:46.032Z,71.43
2019-05-22T22:35:16.048Z,74.41
2019-05-22T22:37:44.825Z,71.46
2019-05-22T22:40:16.066Z,74.21
2019-05-22T22:42:47.006Z,75.75
2019-05-22T22:45:36.189Z,71.32
2019-05-22T22:48:06.516Z,72.91
2019-05-22T22:50:36.359Z,70.94
2019-05-22T22:53:06.296Z,71.19
2019-05-22T22:55:36.764Z,70.51
2019-05-22T22:58:16.535Z,67.86
2019-05-22T23:00:40.404Z,74.48
2019-05-22T23:03:11.189Z,71.48
2019-05-22T23:05:41.719Z,71.48
2019-05-22T23:08:13.246Z,73.14
2019-05-22T23:10:42.483Z,70.45
2019-05-22T23:13:12.421Z,75.70
2019-05-22T23:15:41.363Z,68.73
2019-05-22T23:18:10.118Z,70.55
2019-05-22T23:20:38.768Z,69.18
2019-05-22T23:23:07.117Z,70.28
2019-05-22T23:25:37.355Z,70.78
2019-05-22T23:28:05.656Z,67.81
2019-05-22T23:30:34.113Z,70.71
2019-05-22T23:33:03.182Z,69.14
2019-05-22T23:35:31.910Z,71.51
2019-05-22T23:38:01.842Z,71.35
2019-05-22T23:40:31.847Z,70.80
2019-05-22T23:43:02.495Z,70.41
2019-05-22T23:45:30.959Z,73.47
2019-05-22T23:48:27.545Z,71.41
2019-05-22T23:50:56.483Z,67.82
2019-05-22T23:53:25.177Z,68.70
2019-05-22T23:55:54.111Z,65.72
2019-05-22T23:58:23.079Z,65.32
